createdAt,value
2023-01-22T00:01:30.725Z,20.30
2023-01-22T00:05:32.394Z,19.77
2023-01-22T00:09:34.144Z,20.37
2023-01-22T00:13:35.796Z,19.62
2023-01-22T00:17:37.706Z,20.98
2023-01-22T00:21:39.375Z,21.02
2023-01-22T00:25:41.088Z,20.83
2023-01-22T00:29:42.685Z,19.00
2023-01-22T00:33:45.942Z,18.70
2023-01-22T00:37:48.332Z,18.58
2023-01-22T00:41:50.140Z,19.92
2023-01-22T00:45:51.809Z,19.73
2023-01-22T00:49:53.949Z,20.08
2023-01-22T00:53:55.933Z,19.92
2023-01-22T00:57:57.582Z,20.45
2023-01-22T01:01:59.303Z,19.30
2023-01-22T01:06:14.118Z,19.87
2023-01-22T01:10:16.743Z,19.27
2023-01-22T01:14:18.533Z,19.98
2023-01-22T01:18:21.507Z,19.23
2023-01-22T01:22:23.159Z,19.48
2023-01-22T01:26:25.622Z,20.00
2023-01-22T01:30:27.300Z,19.92
2023-01-22T01:34:28.947Z,18.90
2023-01-22T01:38:30.862Z,20.10
2023-01-22T01:42:38.291Z,19.05
2023-01-22T01:46:45.234Z,19.52
2023-01-22T01:50:59.650Z,19.30
2023-01-22T01:55:01.401Z,20.80
2023-01-22T01:59:07.233Z,19.90
2023-01-22T02:03:08.868Z,19.23
2023-01-22T02:07:10.579Z,19.25
2023-01-22T02:11:13.368Z,19.75
2023-01-22T02:15:15.157Z,18.62
2023-01-22T02:19:16.799Z,20.05
2023-01-22T02:23:18.495Z,20.77
2023-01-22T02:27:20.163Z,19.95
2023-01-22T02:31:21.885Z,20.42
2023-01-22T02:35:23.599Z,21.25
2023-01-22T02:39:25.351Z,20.52
2023-01-22T02:43:26.992Z,20.35
2023-01-22T02:47:28.632Z,20.95
2023-01-22T02:51:30.296Z,21.12
2023-01-22T02:55:32.032Z,18.98
2023-01-22T02:59:34.759Z,20.50
2023-01-22T03:03:36.586Z,20.92
2023-01-22T03:07:44.891Z,19.15
2023-01-22T03:11:47.623Z,20.58
2023-01-22T03:16:08.046Z,19.00
2023-01-22T03:20:29.093Z,19.27
2023-01-22T03:24:30.887Z,19.17
2023-01-22T03:28:32.612Z,18.35
2023-01-22T03:32:34.251Z,19.92
2023-01-22T03:36:36.077Z,18.45
2023-01-22T03:40:37.695Z,19.23
2023-01-22T03:44:39.364Z,19.00
2023-01-22T03:48:41.802Z,17.80
2023-01-22T03:52:43.385Z,17.48
2023-01-22T03:56:45.108Z,17.85
2023-01-22T04:00:48.375Z,16.33
2023-01-22T04:04:50.544Z,18.77
2023-01-22T04:08:54.481Z,17.67
2023-01-22T04:12:56.187Z,17.15
2023-01-22T04:16:57.904Z,16.45
2023-01-22T04:20:59.620Z,18.40
2023-01-22T04:25:01.352Z,16.73
2023-01-22T04:29:03.230Z,17.35
2023-01-22T04:33:05.349Z,17.15
2023-01-22T04:37:06.952Z,16.85
2023-01-22T04:41:08.563Z,15.43
2023-01-22T04:45:10.732Z,17.05
2023-01-22T04:49:12.386Z,16.65
2023-01-22T04:53:14.117Z,16.23
2023-01-22T04:57:15.915Z,15.98
2023-01-22T05:01:17.614Z,15.82
2023-01-22T05:05:19.324Z,17.02
2023-01-22T05:09:21.381Z,16.80
2023-01-22T05:13:23.037Z,16.08
2023-01-22T05:17:25.203Z,16.23
2023-01-22T05:21:26.838Z,17.37
2023-01-22T05:25:28.756Z,17.33
2023-01-22T05:29:30.482Z,17.23
2023-01-22T05:33:32.536Z,18.20
2023-01-22T05:37:34.332Z,17.50
2023-01-22T05:41:35.995Z,17.27
2023-01-22T05:45:37.627Z,17.48
2023-01-22T05:49:39.647Z,18.83
2023-01-22T05:53:41.301Z,16.92
2023-01-22T05:57:43.007Z,18.20
2023-01-22T06:01:44.665Z,18.90
2023-01-22T06:05:46.311Z,18.80
2023-01-22T06:09:48.170Z,18.20
2023-01-22T06:13:49.938Z,19.45
2023-01-22T06:17:51.577Z,20.90
2023-01-22T06:21:54.016Z,18.70
2023-01-22T06:25:58.042Z,18.67
2023-01-22T06:29:59.760Z,20.48
2023-01-22T06:34:01.601Z,20.05
2023-01-22T06:38:03.323Z,17.58
2023-01-22T06:42:05.986Z,17.10
2023-01-22T06:46:07.671Z,16.30
2023-01-22T06:50:10.354Z,16.10
2023-01-22T06:54:12.581Z,16.92
2023-01-22T06:58:14.182Z,16.85
2023-01-22T07:02:17.511Z,15.68
2023-01-22T07:06:19.169Z,16.23
2023-01-22T07:10:21.436Z,15.73
2023-01-22T07:14:36.197Z,15.38
2023-01-22T07:18:38.719Z,13.35
2023-01-22T07:22:40.371Z,15.05
2023-01-22T07:26:43.457Z,14.38
2023-01-22T07:30:46.991Z,14.00
2023-01-22T07:34:48.737Z,17.90
2023-01-22T07:38:50.373Z,17.15
2023-01-22T07:42:52.820Z,19.75
2023-01-22T07:46:54.554Z,20.02
2023-01-22T07:51:04.401Z,14.77
2023-01-22T07:55:06.769Z,15.75
2023-01-22T07:59:08.424Z,15.70
2023-01-22T08:03:10.513Z,15.60
2023-01-22T08:07:17.015Z,15.80
2023-01-22T08:11:18.867Z,17.00
2023-01-22T08:15:20.619Z,18.37
2023-01-22T08:19:22.225Z,22.13
2023-01-22T08:23:23.946Z,20.37
2023-01-22T08:27:25.650Z,17.75
2023-01-22T08:31:28.649Z,17.33
2023-01-22T08:35:31.083Z,17.15
2023-01-22T08:39:32.953Z,19.10
2023-01-22T08:43:34.612Z,19.12
2023-01-22T08:47:36.284Z,17.00
2023-01-22T08:51:38.043Z,17.52
2023-01-22T08:55:39.781Z,18.30
2023-01-22T08:59:43.058Z,17.10
2023-01-22T09:03:46.584Z,18.10
2023-01-22T09:07:48.247Z,17.37
2023-01-22T09:11:50.017Z,16.70
2023-01-22T09:15:56.674Z,16.05
2023-01-22T09:19:59.328Z,16.62
2023-01-22T09:24:01.054Z,16.30
2023-01-22T09:28:04.947Z,16.15
2023-01-22T09:32:06.665Z,16.77
2023-01-22T09:36:13.407Z,16.17
2023-01-22T09:40:50.376Z,17.25
2023-01-22T09:44:55.961Z,15.90
2023-01-22T09:49:03.097Z,15.00
2023-01-22T09:53:07.478Z,15.40
2023-01-22T09:57:29.866Z,17.48
2023-01-22T10:01:33.552Z,16.42
2023-01-22T10:05:37.711Z,15.60
2023-01-22T10:09:40.664Z,16.23
2023-01-22T10:13:42.467Z,15.45
2023-01-22T10:17:44.768Z,16.33
2023-01-22T10:21:49.922Z,15.18
2023-01-22T10:26:13.240Z,16.23
2023-01-22T10:30:24.652Z,16.10
2023-01-22T10:34:37.133Z,20.83
2023-01-22T10:38:38.760Z,17.52
2023-01-22T10:42:40.409Z,15.60
2023-01-22T10:46:42.863Z,15.82
2023-01-22T10:50:45.989Z,16.48
2023-01-22T10:54:57.461Z,16.87
2023-01-22T10:59:03.523Z,18.42
2023-01-22T11:03:36.080Z,18.45
2023-01-22T11:07:38.265Z,18.37
2023-01-22T11:11:50.607Z,17.50
2023-01-22T11:16:10.807Z,20.37
2023-01-22T11:20:32.977Z,20.50
2023-01-22T11:24:42.708Z,20.58
2023-01-22T11:29:21.321Z,20.12
2023-01-22T11:33:36.085Z,18.12
2023-01-22T11:37:58.041Z,22.83
2023-01-22T11:42:06.599Z,20.25
2023-01-22T11:46:25.091Z,18.55
2023-01-22T11:50:44.978Z,20.33
2023-01-22T11:55:04.212Z,17.83
2023-01-22T11:59:28.405Z,17.30
2023-01-22T12:03:59.998Z,17.92
2023-01-22T12:08:01.677Z,16.75
2023-01-22T12:12:17.495Z,16.98
2023-01-22T12:16:19.150Z,16.12
2023-01-22T12:20:45.540Z,15.48
2023-01-22T12:25:13.909Z,15.98
2023-01-22T12:29:25.001Z,15.10
2023-01-22T12:33:31.992Z,16.58
2023-01-22T12:41:56.558Z,14.87
2023-01-22T12:46:07.991Z,14.48
2023-01-22T12:50:21.232Z,14.45
2023-01-22T12:54:26.252Z,14.25
2023-01-22T12:58:30.437Z,15.25
2023-01-22T13:02:37.797Z,15.00
2023-01-22T13:06:41.695Z,15.73
2023-01-22T13:10:58.395Z,15.10
2023-01-22T13:15:01.137Z,15.48
2023-01-22T13:19:19.556Z,15.80
2023-01-22T13:23:21.806Z,15.75
2023-01-22T13:27:34.211Z,15.73
2023-01-22T13:31:36.009Z,14.95
2023-01-22T13:35:42.174Z,16.05
2023-01-22T13:39:43.850Z,17.43
2023-01-22T13:43:45.743Z,17.75
2023-01-22T13:47:47.587Z,18.45
2023-01-22T13:51:50.613Z,17.05
2023-01-22T13:55:52.638Z,19.95
2023-01-22T13:59:56.907Z,17.92
2023-01-22T14:04:05.215Z,19.90
2023-01-22T14:08:12.654Z,19.40
2023-01-22T14:12:23.222Z,17.12
2023-01-22T14:16:24.974Z,23.98
2023-01-22T14:20:26.651Z,20.02
2023-01-22T14:24:28.323Z,20.20
2023-01-22T14:28:31.362Z,22.00
2023-01-22T14:32:33.008Z,18.37
2023-01-22T14:36:34.680Z,22.58
2023-01-22T14:40:36.330Z,27.20
2023-01-22T14:44:56.762Z,19.87
2023-01-22T14:49:01.580Z,17.33
2023-01-22T14:53:03.238Z,18.48
2023-01-22T14:57:04.892Z,17.60
2023-01-22T15:01:25.164Z,17.23
2023-01-22T15:05:27.668Z,17.65
2023-01-22T15:09:29.281Z,18.80
2023-01-22T15:13:30.941Z,20.20
2023-01-22T15:17:32.668Z,21.75
2023-01-22T15:21:34.488Z,21.60
2023-01-22T15:25:36.161Z,20.02
2023-01-22T15:29:38.059Z,23.35
2023-01-22T15:33:39.775Z,23.17
2023-01-22T15:37:41.570Z,20.95
2023-01-22T15:41:43.494Z,19.73
2023-01-22T15:45:45.199Z,19.83
2023-01-22T15:49:46.883Z,19.67
2023-01-22T15:53:50.372Z,20.95
2023-01-22T15:57:52.093Z,20.55
2023-01-22T16:01:53.796Z,20.35
2023-01-22T16:05:55.545Z,20.37
2023-01-22T16:09:57.180Z,20.35
2023-01-22T16:13:59.583Z,19.27
2023-01-22T16:18:01.235Z,19.37
2023-01-22T16:22:03.029Z,18.00
2023-01-22T16:26:10.791Z,18.15
2023-01-22T16:30:13.263Z,18.48
2023-01-22T16:34:17.836Z,19.77
2023-01-22T16:38:19.541Z,19.80
2023-01-22T16:42:21.263Z,20.40
2023-01-22T16:46:25.934Z,18.90
2023-01-22T16:50:27.640Z,18.80
2023-01-22T16:54:31.643Z,19.67
2023-01-22T16:58:33.240Z,19.33
2023-01-22T17:02:34.977Z,20.52
2023-01-22T17:06:45.918Z,19.98
2023-01-22T17:10:47.930Z,20.02
2023-01-22T17:14:52.529Z,33.10
2023-01-22T17:18:55.279Z,30.30
2023-01-22T17:22:57.937Z,22.77
2023-01-22T17:27:02.245Z,22.08
2023-01-22T17:31:12.081Z,24.80
2023-01-22T17:35:14.832Z,21.95
2023-01-22T17:39:17.398Z,23.38
2023-01-22T17:43:19.030Z,23.55
2023-01-22T17:47:20.896Z,24.70
2023-01-22T17:51:28.213Z,22.62
2023-01-22T17:55:29.916Z,24.75
2023-01-22T17:59:31.631Z,22.85
2023-01-22T18:03:33.952Z,23.62
2023-01-22T18:07:35.626Z,20.77
2023-01-22T18:11:38.544Z,22.65
2023-01-22T18:15:45.543Z,21.60
2023-01-22T18:19:47.333Z,20.70
2023-01-22T18:23:49.953Z,22.17
2023-01-22T18:27:51.645Z,22.45
2023-01-22T18:31:53.668Z,21.08
2023-01-22T18:35:55.344Z,25.33
2023-01-22T18:39:56.988Z,22.33
2023-01-22T18:44:00.501Z,20.30
2023-01-22T18:48:02.557Z,22.42
2023-01-22T18:52:04.334Z,20.40
2023-01-22T18:56:07.789Z,21.60
2023-01-22T19:00:11.452Z,24.73
2023-01-22T19:04:18.844Z,22.75
2023-01-22T19:08:22.084Z,21.98
2023-01-22T19:12:23.707Z,21.10
2023-01-22T19:16:26.236Z,22.48
2023-01-22T19:20:27.873Z,21.33
2023-01-22T19:24:30.530Z,22.60
2023-01-22T19:28:32.313Z,23.33
2023-01-22T19:32:37.737Z,23.27
2023-01-22T19:36:40.147Z,24.60
2023-01-22T19:40:44.124Z,23.65
2023-01-22T19:44:46.264Z,23.02
2023-01-22T19:48:47.963Z,23.73
2023-01-22T19:52:49.602Z,27.23
2023-01-22T19:56:51.701Z,23.87
2023-01-22T20:00:54.363Z,25.10
2023-01-22T20:04:56.128Z,23.17
2023-01-22T20:08:57.764Z,24.65
2023-01-22T20:13:00.151Z,25.05
2023-01-22T20:17:02.687Z,26.67
2023-01-22T20:21:04.419Z,25.60
2023-01-22T20:25:08.005Z,25.60
2023-01-22T20:29:12.155Z,24.35
2023-01-22T20:33:13.847Z,26.87
2023-01-22T20:37:15.553Z,25.30
2023-01-22T20:41:18.551Z,27.25
2023-01-22T20:45:20.647Z,24.60
2023-01-22T20:49:22.612Z,23.40
2023-01-22T20:53:25.244Z,24.37
2023-01-22T20:57:27.526Z,24.70
2023-01-22T21:01:29.895Z,22.87
2023-01-22T21:05:31.754Z,24.37
2023-01-22T21:09:34.853Z,24.55
2023-01-22T21:13:36.777Z,23.35
2023-01-22T21:17:38.408Z,24.10
2023-01-22T21:21:40.137Z,24.42
2023-01-22T21:25:41.886Z,22.62
2023-01-22T21:29:43.579Z,23.80
2023-01-22T21:33:45.937Z,23.40
2023-01-22T21:37:48.043Z,20.83
2023-01-22T21:41:50.547Z,23.48
2023-01-22T21:46:11.058Z,23.60
2023-01-22T21:50:12.915Z,22.90
2023-01-22T21:54:16.632Z,21.85
2023-01-22T21:58:18.499Z,22.37
2023-01-22T22:02:20.366Z,20.50
2023-01-22T22:06:22.078Z,20.45
2023-01-22T22:10:23.742Z,20.40
2023-01-22T22:14:25.948Z,20.15
2023-01-22T22:18:28.272Z,19.23
2023-01-22T22:22:31.258Z,19.08
2023-01-22T22:26:33.376Z,18.08
2023-01-22T22:30:35.002Z,20.48
2023-01-22T22:34:36.650Z,20.05
2023-01-22T22:38:38.801Z,20.35
2023-01-22T22:42:40.507Z,20.27
2023-01-22T22:46:42.175Z,20.02
2023-01-22T22:50:44.243Z,20.05
2023-01-22T22:54:46.250Z,21.70
2023-01-22T22:58:47.930Z,20.95
2023-01-22T23:02:49.684Z,20.65
2023-01-22T23:06:51.920Z,22.17
2023-01-22T23:10:53.660Z,22.00
2023-01-22T23:14:55.348Z,22.35
2023-01-22T23:19:01.245Z,21.15
2023-01-22T23:23:02.944Z,20.52
2023-01-22T23:27:04.593Z,20.48
2023-01-22T23:31:13.544Z,21.50
2023-01-22T23:35:15.271Z,19.85
2023-01-22T23:39:19.131Z,19.70
2023-01-22T23:43:20.816Z,18.87
2023-01-22T23:47:24.392Z,18.67
2023-01-22T23:51:26.837Z,19.65
2023-01-22T23:55:30.579Z,18.85
2023-01-22T23:59:32.295Z,19.70
